Time;durP1;ratioP1;P1;durP2;ratioP2;P2;SDS_P1;SDS_P2;PMS_P1;PMS_P2;Temp;Humidity;BMP_temperature;BMP_pressure;BME280_temperature;BME280_humidity;BME280_pressure;Samples;Min_cycle;Max_cycle;Signal;HPM_P1;HPM_P2
2023/10/08 00:02:22;;;;;;;2.83;1.10;;;;;;;;;;5090738;28;20100;-60
2023/10/08 00:04:50;;;;;;;3.28;0.70;;;;;;;;;;5083727;28;20507;-60
2023/10/08 00:07:21;;;;;;;2.03;0.80;;;;;;;;;;5083838;28;20443;-59
2023/10/08 00:09:47;;;;;;;1.33;0.70;;;;;;;;;;5084077;28;20051;-59
2023/10/08 00:12:13;;;;;;;1.20;0.60;;;;;;;;;;5083655;28;20059;-59
2023/10/08 00:14:44;;;;;;;1.48;0.40;;;;;;;;;;5082800;28;20413;-59
2023/10/08 00:17:11;;;;;;;2.53;0.50;;;;;;;;;;5083267;28;20545;-59
2023/10/08 00:19:39;;;;;;;2.08;0.20;;;;;;;;;;5083634;28;20087;-60
2023/10/08 00:22:06;;;;;;;1.25;0.50;;;;;;;;;;5082969;28;20107;-59
2023/10/08 00:24:33;;;;;;;7.07;0.35;;;;;;;;;;5083884;28;20044;-59
2023/10/08 00:27:00;;;;;;;1.23;0.30;;;;;;;;;;5082933;28;20115;-59
2023/10/08 00:29:26;;;;;;;1.38;0.30;;;;;;;;;;5083630;28;20109;-59
2023/10/08 00:31:56;;;;;;;0.77;0.30;;;;;;;;;;5083075;28;20596;-60
2023/10/08 00:34:27;;;;;;;0.68;0.30;;;;;;;;;;5083282;28;20417;-59
2023/10/08 00:36:53;;;;;;;2.35;0.40;;;;;;;;;;5088331;28;20047;-59
2023/10/08 00:39:22;;;;;;;0.77;0.40;;;;;;;;;;5087548;28;20047;-59
2023/10/08 00:41:49;;;;;;;1.75;0.40;;;;;;;;;;5083380;28;20571;-59
2023/10/08 00:44:22;;;;;;;1.23;0.38;;;;;;;;;;5083571;28;20044;-59
2023/10/08 00:46:48;;;;;;;1.10;0.40;;;;;;;;;;5083432;28;20040;-59
2023/10/08 00:51:59;;;;;;;0.80;0.30;;;;;;;;;;5081870;28;20040;-59
2023/10/08 00:54:28;;;;;;;0.55;0.30;;;;;;;;;;5080788;28;20592;-59
2023/10/08 00:56:57;;;;;;;2.60;0.50;;;;;;;;;;5081616;28;20493;-59
2023/10/08 00:59:24;;;;;;;1.92;0.50;;;;;;;;;;5082608;28;20051;-59
2023/10/08 01:01:51;;;;;;;1.58;0.50;;;;;;;;;;5082553;28;20055;-59
2023/10/08 01:04:26;;;;;;;4.68;0.60;;;;;;;;;;5154138;22;20028;-59
2023/10/08 01:06:58;;;;;;;1.95;0.80;;;;;;;;;;5039187;28;20174;-59
2023/10/08 01:09:37;;;;;;;1.70;0.65;;;;;;;;;;5041582;28;20049;-59
2023/10/08 01:12:06;;;;;;;;;;;;;;;;;;5041622;28;20072;-58
2023/10/08 01:14:32;;;;;;;2.20;1.02;;;;;;;;;;5041901;28;19927;-59
2023/10/08 01:16:59;;;;;;;1.83;1.00;;;;;;;;;;5042636;28;20049;-59
2023/10/08 01:19:27;;;;;;;1.55;0.85;;;;;;;;;;5030212;28;20056;-59
2023/10/08 01:21:53;;;;;;;3.40;0.90;;;;;;;;;;5028002;28;20044;-59
2023/10/08 01:24:23;;;;;;;1.83;0.80;;;;;;;;;;5040679;28;20045;-59
2023/10/08 01:26:49;;;;;;;2.45;1.00;;;;;;;;;;5037745;28;20049;-58
2023/10/08 01:29:19;;;;;;;2.53;0.80;;;;;;;;;;5038368;28;20045;-59
2023/10/08 01:31:46;;;;;;;5.55;0.90;;;;;;;;;;5037867;28;20202;-59
2023/10/08 01:34:17;;;;;;;1.77;0.63;;;;;;;;;;5037861;28;20049;-59
2023/10/08 01:36:46;;;;;;;1.95;0.80;;;;;;;;;;5043976;28;20040;-58
2023/10/08 01:39:15;;;;;;;1.48;0.55;;;;;;;;;;5036496;28;20128;-59
2023/10/08 01:41:51;;;;;;;2.90;0.60;;;;;;;;;;5041257;28;20053;-59
2023/10/08 01:44:17;;;;;;;1.55;0.50;;;;;;;;;;5029323;28;20041;-59
2023/10/08 01:46:43;;;;;;;3.80;0.60;;;;;;;;;;5042375;28;20052;-59
2023/10/08 01:49:22;;;;;;;3.10;0.68;;;;;;;;;;5020401;28;20132;-58
2023/10/08 01:51:49;;;;;;;2.22;0.40;;;;;;;;;;5034003;28;20076;-58
2023/10/08 01:54:17;;;;;;;0.90;0.30;;;;;;;;;;5035291;28;20053;-58
2023/10/08 01:56:43;;;;;;;;;;;;;;;;;;5044444;28;20076;-58
2023/10/08 01:59:11;;;;;;;1.17;0.32;;;;;;;;;;5044441;28;19967;-58
2023/10/08 02:01:38;;;;;;;1.67;0.40;;;;;;;;;;5032716;28;20049;-59
2023/10/08 02:04:06;;;;;;;2.92;0.38;;;;;;;;;;5028774;28;20172;-58
2023/10/08 02:06:32;;;;;;;0.95;0.30;;;;;;;;;;5028476;28;20054;-58
2023/10/08 02:08:58;;;;;;;0.47;0.20;;;;;;;;;;5025197;28;20057;-58
2023/10/08 02:11:27;;;;;;;2.40;0.28;;;;;;;;;;5032246;28;20036;-58
2023/10/08 02:13:53;;;;;;;1.63;0.20;;;;;;;;;;5015906;28;20135;-58
2023/10/08 02:16:19;;;;;;;1.55;0.40;;;;;;;;;;5053360;28;20033;-58
2023/10/08 02:18:46;;;;;;;0.98;0.20;;;;;;;;;;5038010;28;20041;-58
2023/10/08 02:21:12;;;;;;;2.72;0.20;;;;;;;;;;5035888;28;20572;-60
2023/10/08 02:23:38;;;;;;;0.30;0.20;;;;;;;;;;5032976;28;20098;-58
2023/10/08 02:26:05;;;;;;;3.30;0.30;;;;;;;;;;5043083;28;20405;-58
2023/10/08 02:28:33;;;;;;;0.87;0.20;;;;;;;;;;5018300;28;20062;-58
2023/10/08 02:30:59;;;;;;;1.70;0.47;;;;;;;;;;5044098;28;20127;-58
2023/10/08 02:33:26;;;;;;;1.40;0.30;;;;;;;;;;5027092;28;20033;-58
2023/10/08 02:35:53;;;;;;;0.95;0.25;;;;;;;;;;5035324;28;20041;-58
2023/10/08 02:38:21;;;;;;;1.65;0.28;;;;;;;;;;5042979;28;20115;-58
2023/10/08 02:40:54;;;;;;;3.50;0.40;;;;;;;;;;5046835;28;20059;-59
2023/10/08 02:43:20;;;;;;;1.75;0.35;;;;;;;;;;5040180;28;20073;-58
2023/10/08 02:45:49;;;;;;;4.32;0.50;;;;;;;;;;5040694;28;20033;-58
2023/10/08 02:48:15;;;;;;;;;;;;;;;;;;5036167;28;20057;-59
2023/10/08 02:50:41;;;;;;;1.27;0.40;;;;;;;;;;5039116;28;20070;-58
2023/10/08 02:53:10;;;;;;;2.15;0.30;;;;;;;;;;5045778;28;20795;-58
2023/10/08 02:55:46;;;;;;;1.13;0.20;;;;;;;;;;5044098;28;20040;-58
2023/10/08 02:58:18;;;;;;;1.40;0.28;;;;;;;;;;5038193;28;20048;-58
2023/10/08 03:00:46;;;;;;;1.98;0.32;;;;;;;;;;5033512;28;20056;-60
2023/10/08 03:03:16;;;;;;;5.10;0.45;;;;;;;;;;5038136;28;20049;-58
2023/10/08 03:05:49;;;;;;;2.20;0.50;;;;;;;;;;5029857;28;20138;-58
2023/10/08 03:08:19;;;;;;;3.03;0.50;;;;;;;;;;5034799;28;20560;-60
2023/10/08 03:10:48;;;;;;;1.10;0.38;;;;;;;;;;5028680;28;20053;-59
2023/10/08 03:13:15;;;;;;;;;;;;;;;;;;5035634;28;20072;-59
2023/10/08 03:18:35;;;;;;;1.65;0.47;;;;;;;;;;5023429;28;20071;-58
2023/10/08 03:21:04;;;;;;;0.60;0.25;;;;;;;;;;5029333;28;20384;-58
2023/10/08 03:23:34;;;;;;;5.53;0.50;;;;;;;;;;5027269;28;20174;-58
2023/10/08 03:26:02;;;;;;;2.10;0.60;;;;;;;;;;5026964;28;20086;-59
2023/10/08 03:28:28;;;;;;;4.50;0.45;;;;;;;;;;5027745;28;20075;-58
2023/10/08 03:31:13;;;;;;;4.22;0.50;;;;;;;;;;5024974;28;20731;-58
2023/10/08 03:33:39;;;;;;;1.52;0.40;;;;;;;;;;5043914;28;20041;-59
2023/10/08 03:36:14;;;;;;;3.10;0.40;;;;;;;;;;5043456;28;20078;-59
2023/10/08 03:38:50;;;;;;;3.35;0.60;;;;;;;;;;5042781;28;20544;-59
2023/10/08 03:41:29;;;;;;;2.05;0.60;;;;;;;;;;5041222;28;20053;-59
2023/10/08 03:44:05;;;;;;;4.32;0.70;;;;;;;;;;5037126;28;20033;-58
2023/10/08 03:46:32;;;;;;;4.15;0.70;;;;;;;;;;5036637;28;20050;-58
2023/10/08 03:49:06;;;;;;;3.58;0.60;;;;;;;;;;5039116;28;20041;-58
2023/10/08 03:51:39;;;;;;;4.43;0.60;;;;;;;;;;5037062;28;20073;-58
2023/10/08 03:56:45;;;;;;;2.60;0.95;;;;;;;;;;5031283;28;20077;-58
2023/10/08 03:59:14;;;;;;;1.38;0.70;;;;;;;;;;5031044;28;20059;-58
2023/10/08 04:01:43;;;;;;;3.05;0.65;;;;;;;;;;5049141;28;20094;-57
2023/10/08 04:04:14;;;;;;;1.83;0.70;;;;;;;;;;5036088;28;20041;-59
2023/10/08 04:06:48;;;;;;;6.28;1.08;;;;;;;;;;5036271;28;20550;-57
2023/10/08 04:09:23;;;;;;;1.23;0.55;;;;;;;;;;5040256;28;20127;-58
2023/10/08 04:11:54;;;;;;;1.77;0.80;;;;;;;;;;5034042;28;20045;-58
2023/10/08 04:14:24;;;;;;;4.40;0.70;;;;;;;;;;5041720;28;20158;-57
2023/10/08 04:16:51;;;;;;;3.05;0.60;;;;;;;;;;5042662;28;20576;-57
2023/10/08 04:19:18;;;;;;;2.10;0.88;;;;;;;;;;5033220;28;20049;-57
2023/10/08 04:21:44;;;;;;;4.28;0.70;;;;;;;;;;5041860;28;20029;-58
2023/10/08 04:24:14;;;;;;;4.65;0.80;;;;;;;;;;5028471;28;20038;-57
2023/10/08 04:26:40;;;;;;;5.47;0.80;;;;;;;;;;5029996;28;20044;-57
2023/10/08 04:29:07;;;;;;;6.85;0.75;;;;;;;;;;5033562;28;20048;-58
2023/10/08 04:31:43;;;;;;;3.75;0.65;;;;;;;;;;5042773;28;20437;-58
2023/10/08 04:34:15;;;;;;;2.50;0.60;;;;;;;;;;5007507;28;20061;-58
2023/10/08 04:36:48;;;;;;;2.83;0.60;;;;;;;;;;5049612;28;20088;-57
2023/10/08 04:39:21;;;;;;;2.75;1.05;;;;;;;;;;5039594;28;20087;-57
2023/10/08 04:41:52;;;;;;;4.65;0.85;;;;;;;;;;5026284;28;20068;-57
2023/10/08 04:44:18;;;;;;;2.72;0.82;;;;;;;;;;5024066;28;20050;-58
2023/10/08 04:49:25;;;;;;;4.07;1.00;;;;;;;;;;5022509;28;20064;-58
2023/10/08 04:51:54;;;;;;;3.20;1.02;;;;;;;;;;5036968;28;20045;-59
2023/10/08 04:54:22;;;;;;;2.20;0.75;;;;;;;;;;5035457;28;20095;-58
2023/10/08 04:56:49;;;;;;;4.50;1.10;;;;;;;;;;5030262;28;20038;-59
2023/10/08 04:59:20;;;;;;;7.90;1.10;;;;;;;;;;5031668;28;20758;-58
2023/10/08 05:02:12;;;;;;;3.47;1.00;;;;;;;;;;5032361;28;20490;-58
2023/10/08 05:12:37;;;;;;;2.83;0.90;;;;;;;;;;5034595;28;20049;-59
2023/10/08 05:17:56;;;;;;;2.78;0.60;;;;;;;;;;5040193;28;20041;-60
2023/10/08 05:25:58;;;;;;;1.88;0.60;;;;;;;;;;5041970;28;20608;-59
2023/10/08 05:28:24;;;;;;;2.37;0.60;;;;;;;;;;5041176;28;20086;-59
2023/10/08 05:34:14;;;;;;;3.28;0.80;;;;;;;;;;5019914;28;20086;-59
2023/10/08 05:37:10;;;;;;;1.75;0.50;;;;;;;;;;5041906;28;20430;-59
2023/10/08 05:45:29;;;;;;;2.72;0.68;;;;;;;;;;5036548;28;20396;-59
2023/10/08 05:55:27;;;;;;;5.32;0.60;;;;;;;;;;5030383;28;20131;-60
2023/10/08 05:58:13;;;;;;;3.63;0.70;;;;;;;;;;5033486;28;20095;-60
2023/10/08 06:01:02;;;;;;;3.35;0.80;;;;;;;;;;5042936;28;20076;-60
2023/10/08 06:04:00;;;;;;;5.22;1.02;;;;;;;;;;5045361;28;20045;-59
2023/10/08 06:06:37;;;;;;;6.82;0.70;;;;;;;;;;5044608;28;20143;-60
2023/10/08 06:09:21;;;;;;;3.15;0.90;;;;;;;;;;5043883;28;20053;-60
2023/10/08 06:12:09;;;;;;;5.38;1.00;;;;;;;;;;5045379;28;20045;-60
2023/10/08 06:15:07;;;;;;;;;;;;;;;;;;5042435;28;20095;-60
2023/10/08 06:20:24;;;;;;;1.30;0.70;;;;;;;;;;5030736;28;20136;-59
2023/10/08 06:22:52;;;;;;;4.35;1.00;;;;;;;;;;5032147;28;20063;-59
2023/10/08 06:25:23;;;;;;;2.72;0.55;;;;;;;;;;5035404;28;20555;-60
2023/10/08 06:27:53;;;;;;;2.13;0.80;;;;;;;;;;5034189;28;20041;-59
2023/10/08 06:30:19;;;;;;;3.55;0.88;;;;;;;;;;5009480;28;20075;-59
2023/10/08 06:32:45;;;;;;;2.22;0.63;;;;;;;;;;5026495;28;20053;-59
2023/10/08 06:35:17;;;;;;;6.72;1.05;;;;;;;;;;5038525;28;20094;-59
2023/10/08 06:37:44;;;;;;;5.22;1.00;;;;;;;;;;5039602;28;20067;-59
2023/10/08 06:40:36;;;;;;;1.90;0.60;;;;;;;;;;5036938;28;20045;-59
2023/10/08 06:42:57;;;;;;;2.20;0.70;;;;;;;;;;5038626;28;20041;-59
2023/10/08 06:45:23;;;;;;;1.63;0.57;;;;;;;;;;5048174;28;20045;-59
2023/10/08 06:47:49;;;;;;;4.22;0.80;;;;;;;;;;5043517;28;20052;-59
2023/10/08 06:50:21;;;;;;;3.70;0.60;;;;;;;;;;5039011;28;20557;-59
2023/10/08 06:52:49;;;;;;;1.27;0.68;;;;;;;;;;5042685;28;20045;-59
2023/10/08 06:55:17;;;;;;;7.72;0.80;;;;;;;;;;5040045;28;20053;-59
2023/10/08 06:57:43;;;;;;;;;;;;;;;;;;5043703;28;20494;-59
2023/10/08 07:00:33;;;;;;;3.38;0.90;;;;;;;;;;5039577;28;20654;-59
2023/10/08 07:02:58;;;;;;;4.68;1.10;;;;;;;;;;5033670;28;20068;-60
2023/10/08 07:05:24;;;;;;;4.65;0.90;;;;;;;;;;5036902;28;20117;-59
2023/10/08 07:07:52;;;;;;;15.55;6.60;;;;;;;;;;5010383;28;20487;-59
2023/10/08 07:10:19;;;;;;;9.43;2.35;;;;;;;;;;5026723;28;20129;-59
2023/10/08 07:12:46;;;;;;;3.70;1.58;;;;;;;;;;5009605;28;20072;-59
2023/10/08 07:15:14;;;;;;;4.90;0.90;;;;;;;;;;5042926;28;20469;-59
2023/10/08 07:17:43;;;;;;;3.65;0.77;;;;;;;;;;5044779;28;20053;-59
2023/10/08 07:20:21;;;;;;;3.17;0.60;;;;;;;;;;5037831;28;20072;-59
2023/10/08 07:22:54;;;;;;;;;;;;;;;;;;5041376;28;20045;-59
2023/10/08 07:25:21;;;;;;;3.13;0.70;;;;;;;;;;5042436;28;20000;-58
2023/10/08 07:27:47;;;;;;;6.32;1.10;;;;;;;;;;5043390;28;20045;-59
2023/10/08 07:30:18;;;;;;;4.72;1.02;;;;;;;;;;5040700;28;20075;-59
2023/10/08 07:32:44;;;;;;;8.50;0.90;;;;;;;;;;5029434;28;20041;-59
2023/10/08 07:37:46;;;;;;;5.32;1.00;;;;;;;;;;5025655;28;20045;-59
2023/10/08 07:40:13;;;;;;;3.30;1.00;;;;;;;;;;5032163;28;20058;-59
2023/10/08 07:42:39;;;;;;;4.97;0.85;;;;;;;;;;5053705;28;20045;-59
2023/10/08 07:45:05;;;;;;;3.92;1.10;;;;;;;;;;5042334;28;20056;-59
2023/10/08 07:47:31;;;;;;;6.75;1.08;;;;;;;;;;5023993;28;20045;-60
2023/10/08 07:49:58;;;;;;;15.63;10.65;;;;;;;;;;5039220;28;20045;-59
2023/10/08 07:52:24;;;;;;;9.32;6.00;;;;;;;;;;5041173;28;20048;-60
2023/10/08 07:54:52;;;;;;;4.15;0.90;;;;;;;;;;5020768;28;20049;-59
2023/10/08 07:57:27;;;;;;;7.55;0.90;;;;;;;;;;5038676;28;20155;-59
2023/10/08 08:00:17;;;;;;;21.50;14.43;;;;;;;;;;5034474;28;20478;-59
2023/10/08 08:02:43;;;;;;;21.58;12.88;;;;;;;;;;5033291;28;20044;-60
2023/10/08 08:05:09;;;;;;;10.80;3.90;;;;;;;;;;5038028;28;20053;-60
2023/10/08 08:07:35;;;;;;;14.93;8.43;;;;;;;;;;5037505;28;20056;-62
2023/10/08 08:10:03;;;;;;;4.72;1.00;;;;;;;;;;5036319;28;20701;-60
2023/10/08 08:12:32;;;;;;;;;;;;;;;;;;5039623;28;20056;-60
2023/10/08 08:14:58;;;;;;;2.15;0.93;;;;;;;;;;5040873;28;19925;-60
2023/10/08 08:17:26;;;;;;;2.90;0.52;;;;;;;;;;5040162;28;20076;-59
2023/10/08 08:19:52;;;;;;;6.03;0.60;;;;;;;;;;5031569;28;20052;-60
2023/10/08 08:22:23;;;;;;;4.60;0.60;;;;;;;;;;5038377;28;20043;-60
2023/10/08 08:25:42;;;;;;;6.65;1.00;;;;;;;;;;5042220;28;20987;-60
2023/10/08 08:27:44;;;;;;;5.63;0.88;;;;;;;;;;5028378;28;20407;-60
2023/10/08 08:30:10;;;;;;;5.85;1.13;;;;;;;;;;5010224;28;20636;-61
2023/10/08 08:32:43;;;;;;;7.25;0.95;;;;;;;;;;5037814;28;20041;-60
2023/10/08 08:35:09;;;;;;;4.22;0.90;;;;;;;;;;5012074;28;20057;-60
2023/10/08 08:37:38;;;;;;;3.05;0.68;;;;;;;;;;5035536;28;20128;-60
2023/10/08 08:40:09;;;;;;;;;;;;;;;;;;5038317;28;20045;-60
2023/10/08 08:42:35;;;;;;;3.65;0.85;;;;;;;;;;5037447;28;19950;-60
2023/10/08 08:45:08;;;;;;;4.05;0.80;;;;;;;;;;5033359;28;20136;-60
2023/10/08 08:47:35;;;;;;;6.82;0.90;;;;;;;;;;5014033;28;20045;-60
2023/10/08 08:50:08;;;;;;;8.90;0.90;;;;;;;;;;5037859;28;20065;-60
2023/10/08 08:52:34;;;;;;;6.63;0.70;;;;;;;;;;5037686;28;20053;-60
2023/10/08 08:55:06;;;;;;;6.93;1.40;;;;;;;;;;5037351;28;20037;-60
2023/10/08 08:57:33;;;;;;;9.13;1.20;;;;;;;;;;5035298;28;20044;-60
2023/10/08 08:59:59;;;;;;;4.00;0.50;;;;;;;;;;5043690;28;20110;-59
2023/10/08 09:02:25;;;;;;;6.97;0.98;;;;;;;;;;5040447;28;20725;-60
2023/10/08 09:04:53;;;;;;;9.35;0.80;;;;;;;;;;5036822;28;20060;-61
2023/10/08 09:07:21;;;;;;;8.38;0.75;;;;;;;;;;5013623;28;20465;-60
2023/10/08 09:09:49;;;;;;;4.72;0.82;;;;;;;;;;5033922;28;20051;-61
2023/10/08 09:12:16;;;;;;;16.73;1.10;;;;;;;;;;5031364;28;20402;-61
2023/10/08 09:14:44;;;;;;;9.50;1.35;;;;;;;;;;5021429;28;20128;-60
2023/10/08 09:17:11;;;;;;;5.03;0.80;;;;;;;;;;5039729;28;20099;-60
2023/10/08 09:19:37;;;;;;;6.10;1.10;;;;;;;;;;5019674;28;20128;-61
2023/10/08 09:22:06;;;;;;;4.70;0.60;;;;;;;;;;5010274;28;20056;-61
2023/10/08 09:24:33;;;;;;;5.82;0.82;;;;;;;;;;5007489;28;20102;-60
2023/10/08 09:27:00;;;;;;;9.43;0.83;;;;;;;;;;5024719;28;20088;-60
2023/10/08 09:29:26;;;;;;;8.88;0.90;;;;;;;;;;5021595;28;20050;-60
2023/10/08 09:32:05;;;;;;;9.35;1.05;;;;;;;;;;5028853;28;20045;-60
2023/10/08 09:34:32;;;;;;;6.22;0.75;;;;;;;;;;5046192;28;20863;-60
2023/10/08 09:37:01;;;;;;;7.93;1.02;;;;;;;;;;5044069;28;20131;-60
2023/10/08 09:39:30;;;;;;;7.00;0.75;;;;;;;;;;5042032;28;20040;-61
2023/10/08 09:41:56;;;;;;;7.40;1.40;;;;;;;;;;5037828;28;20457;-61
2023/10/08 09:44:26;;;;;;;3.20;0.60;;;;;;;;;;5046171;28;20643;-60
2023/10/08 09:46:56;;;;;;;5.45;1.10;;;;;;;;;;5036174;28;20045;-61
2023/10/08 09:49:28;;;;;;;4.55;0.70;;;;;;;;;;5032859;28;20069;-60
2023/10/08 09:51:55;;;;;;;8.02;0.65;;;;;;;;;;5036548;28;20049;-60
2023/10/08 09:54:25;;;;;;;4.32;0.68;;;;;;;;;;5023849;28;20049;-60
2023/10/08 09:56:52;;;;;;;6.88;0.60;;;;;;;;;;5039330;28;20071;-60
2023/10/08 09:59:19;;;;;;;5.32;0.57;;;;;;;;;;5042674;28;20477;-60
2023/10/08 10:01:47;;;;;;;5.47;0.55;;;;;;;;;;5026389;28;20056;-60
2023/10/08 10:04:13;;;;;;;5.40;0.70;;;;;;;;;;5040712;28;20063;-60
2023/10/08 10:06:43;;;;;;;5.15;0.65;;;;;;;;;;5040232;28;20045;-61
2023/10/08 10:09:15;;;;;;;8.15;1.27;;;;;;;;;;5048898;28;20071;-60
2023/10/08 10:11:46;;;;;;;4.35;1.13;;;;;;;;;;5026546;28;20060;-61
2023/10/08 10:14:13;;;;;;;7.82;0.80;;;;;;;;;;5038935;28;20159;-60
2023/10/08 10:16:41;;;;;;;9.13;1.10;;;;;;;;;;5043314;28;20498;-60
2023/10/08 10:19:07;;;;;;;;;;;;;;;;;;5046361;28;20040;-62
2023/10/08 10:21:34;;;;;;;5.85;0.85;;;;;;;;;;5044749;28;20020;-62
2023/10/08 10:24:02;;;;;;;4.38;0.63;;;;;;;;;;5030171;28;20045;-60
2023/10/08 10:26:33;;;;;;;7.60;0.63;;;;;;;;;;5040379;28;20640;-60
2023/10/08 10:29:15;;;;;;;4.13;0.73;;;;;;;;;;5021935;28;20125;-60
2023/10/08 10:31:46;;;;;;;5.88;0.82;;;;;;;;;;5027861;28;20040;-60
2023/10/08 10:34:16;;;;;;;9.70;0.95;;;;;;;;;;5006261;28;20049;-60
2023/10/08 10:36:43;;;;;;;5.30;0.95;;;;;;;;;;5025561;28;20785;-60
2023/10/08 10:39:16;;;;;;;10.82;0.80;;;;;;;;;;5022044;28;20041;-60
2023/10/08 10:41:48;;;;;;;13.25;0.90;;;;;;;;;;5037435;28;20535;-60
2023/10/08 10:44:18;;;;;;;10.52;0.70;;;;;;;;;;5042000;28;20117;-60
2023/10/08 10:47:25;;;;;;;6.90;0.80;;;;;;;;;;5041010;28;20148;-60
2023/10/08 10:52:34;;;;;;;8.43;0.70;;;;;;;;;;5034092;28;20080;-61
2023/10/08 10:55:17;;;;;;;8.50;1.13;;;;;;;;;;5034649;28;20513;-60
2023/10/08 10:57:56;;;;;;;7.53;1.00;;;;;;;;;;5036077;28;20095;-60
2023/10/08 11:03:15;;;;;;;11.07;0.85;;;;;;;;;;5033245;28;20076;-62
2023/10/08 11:05:47;;;;;;;8.65;0.63;;;;;;;;;;5031889;28;20140;-61
2023/10/08 11:08:14;;;;;;;10.52;1.35;;;;;;;;;;5042189;28;20609;-60
2023/10/08 11:10:48;;;;;;;11.85;0.95;;;;;;;;;;5041786;28;20048;-61
2023/10/08 11:13:14;;;;;;;4.50;0.60;;;;;;;;;;5039260;28;20053;-61
2023/10/08 11:15:40;;;;;;;4.72;1.00;;;;;;;;;;5041806;28;20041;-61
2023/10/08 11:18:16;;;;;;;7.35;0.70;;;;;;;;;;5038395;28;20099;-60
2023/10/08 11:20:46;;;;;;;9.50;0.75;;;;;;;;;;5039045;28;20068;-61
2023/10/08 11:23:28;;;;;;;8.10;0.70;;;;;;;;;;5036168;28;20044;-61
2023/10/08 11:25:55;;;;;;;6.22;0.70;;;;;;;;;;5034444;28;20521;-61
2023/10/08 11:28:24;;;;;;;10.15;0.90;;;;;;;;;;5026824;28;20136;-60
2023/10/08 11:30:53;;;;;;;9.20;1.10;;;;;;;;;;5031360;28;20116;-60
2023/10/08 11:33:19;;;;;;;5.43;0.73;;;;;;;;;;5033865;28;20045;-59
2023/10/08 11:36:01;;;;;;;6.95;0.77;;;;;;;;;;5028972;28;20037;-60
2023/10/08 11:38:27;;;;;;;8.15;0.80;;;;;;;;;;5030608;28;20041;-60
2023/10/08 11:40:56;;;;;;;5.65;0.60;;;;;;;;;;5026292;28;20116;-60
2023/10/08 11:43:25;;;;;;;8.85;0.77;;;;;;;;;;5047216;28;20402;-60
2023/10/08 11:45:52;;;;;;;8.25;1.25;;;;;;;;;;5007077;28;20127;-60
2023/10/08 11:48:25;;;;;;;7.32;0.50;;;;;;;;;;5028150;28;20128;-61
2023/10/08 11:50:52;;;;;;;3.00;0.55;;;;;;;;;;5029268;28;20159;-60
2023/10/08 11:53:19;;;;;;;11.25;1.13;;;;;;;;;;5025281;28;20514;-61
2023/10/08 11:55:47;;;;;;;5.85;1.00;;;;;;;;;;5030397;28;20048;-60
2023/10/08 11:58:17;;;;;;;3.97;0.63;;;;;;;;;;5030462;28;20053;-61
2023/10/08 12:00:44;;;;;;;4.30;0.60;;;;;;;;;;5035496;28;20511;-61
2023/10/08 12:03:17;;;;;;;6.38;1.00;;;;;;;;;;5021787;28;20049;-61
2023/10/08 12:05:47;;;;;;;7.00;0.73;;;;;;;;;;5025823;28;20103;-60
2023/10/08 12:08:16;;;;;;;9.07;0.90;;;;;;;;;;5041569;28;20060;-61
2023/10/08 12:10:46;;;;;;;9.27;2.35;;;;;;;;;;5040217;28;20130;-61
2023/10/08 12:13:12;;;;;;;7.60;0.80;;;;;;;;;;5042573;28;20048;-60
2023/10/08 12:15:39;;;;;;;4.80;0.60;;;;;;;;;;5040974;28;20052;-61
2023/10/08 12:18:08;;;;;;;11.93;1.02;;;;;;;;;;5039448;28;20052;-60
2023/10/08 12:20:47;;;;;;;5.20;0.50;;;;;;;;;;5027453;28;20137;-60
2023/10/08 12:23:25;;;;;;;6.47;0.90;;;;;;;;;;5030698;28;20053;-60
2023/10/08 12:25:59;;;;;;;5.55;0.80;;;;;;;;;;5015472;28;20049;-61
2023/10/08 12:28:29;;;;;;;10.07;0.80;;;;;;;;;;5030029;28;20071;-61
2023/10/08 12:31:00;;;;;;;7.78;1.58;;;;;;;;;;5040216;28;20033;-60
2023/10/08 12:33:29;;;;;;;3.65;0.60;;;;;;;;;;5022824;28;20045;-60
2023/10/08 12:35:56;;;;;;;5.78;0.85;;;;;;;;;;5023740;28;20045;-60
2023/10/08 12:38:23;;;;;;;7.72;0.80;;;;;;;;;;5034373;28;20060;-60
2023/10/08 12:40:52;;;;;;;9.88;1.05;;;;;;;;;;5034093;28;20045;-60
2023/10/08 12:43:22;;;;;;;5.53;0.90;;;;;;;;;;5027207;28;20041;-61
2023/10/08 12:45:51;;;;;;;7.70;0.98;;;;;;;;;;5034408;28;20045;-60
2023/10/08 12:48:18;;;;;;;6.13;0.82;;;;;;;;;;5039937;28;20075;-60
2023/10/08 12:50:44;;;;;;;7.93;0.80;;;;;;;;;;5034407;28;20534;-60
2023/10/08 12:53:11;;;;;;;4.90;0.90;;;;;;;;;;5030274;28;20049;-59
2023/10/08 12:55:40;;;;;;;4.97;0.68;;;;;;;;;;5017492;28;20456;-59
2023/10/08 12:58:09;;;;;;;5.97;0.88;;;;;;;;;;5039049;28;20457;-59
2023/10/08 13:00:38;;;;;;;10.15;1.42;;;;;;;;;;5040246;28;20498;-59
2023/10/08 13:03:22;;;;;;;6.28;1.10;;;;;;;;;;5039800;28;20112;-60
2023/10/08 13:05:52;;;;;;;8.55;0.82;;;;;;;;;;5038138;28;20151;-59
2023/10/08 13:08:19;;;;;;;5.38;0.73;;;;;;;;;;5036698;28;20047;-60
2023/10/08 13:10:45;;;;;;;12.82;1.52;;;;;;;;;;5038328;28;20049;-61
2023/10/08 13:13:12;;;;;;;7.53;0.68;;;;;;;;;;5037547;28;20151;-61
2023/10/08 13:15:38;;;;;;;8.65;0.82;;;;;;;;;;5039001;28;20045;-61
2023/10/08 13:18:04;;;;;;;7.22;1.10;;;;;;;;;;5039168;28;20059;-61
2023/10/08 13:20:34;;;;;;;7.00;3.20;;;;;;;;;;5028830;28;20044;-61
2023/10/08 13:23:06;;;;;;;7.80;1.50;;;;;;;;;;5039068;28;20404;-61
2023/10/08 13:25:36;;;;;;;8.90;1.13;;;;;;;;;;5036168;28;20120;-58
2023/10/08 13:28:02;;;;;;;9.38;1.08;;;;;;;;;;5036130;28;20049;-58
2023/10/08 13:30:28;;;;;;;7.72;0.80;;;;;;;;;;5038844;28;20072;-58
2023/10/08 13:32:54;;;;;;;9.48;0.70;;;;;;;;;;5038742;28;20052;-59
2023/10/08 13:35:20;;;;;;;7.78;1.15;;;;;;;;;;5027461;28;20056;-59
2023/10/08 13:37:48;;;;;;;9.40;1.05;;;;;;;;;;5022635;28;20046;-58
2023/10/08 13:40:15;;;;;;;5.55;0.65;;;;;;;;;;5007983;28;20597;-59
2023/10/08 13:42:42;;;;;;;6.87;0.73;;;;;;;;;;5011162;28;20563;-59
2023/10/08 13:45:09;;;;;;;3.17;0.63;;;;;;;;;;5026254;28;20320;-59
2023/10/08 13:47:35;;;;;;;6.57;0.90;;;;;;;;;;5020231;28;20057;-60
2023/10/08 13:50:10;;;;;;;4.70;0.63;;;;;;;;;;5033859;28;20048;-59
2023/10/08 13:52:38;;;;;;;5.03;0.50;;;;;;;;;;5039439;28;20135;-59
2023/10/08 13:55:06;;;;;;;8.90;0.65;;;;;;;;;;5038856;28;20045;-58
2023/10/08 13:57:33;;;;;;;8.88;1.10;;;;;;;;;;5022939;28;20092;-59
2023/10/08 14:00:00;;;;;;;12.20;4.20;;;;;;;;;;5021850;28;20054;-59
2023/10/08 14:02:26;;;;;;;10.35;0.70;;;;;;;;;;5028989;28;20820;-59
2023/10/08 14:04:53;;;;;;;3.70;0.82;;;;;;;;;;5037567;28;20763;-59
2023/10/08 14:07:21;;;;;;;7.43;0.65;;;;;;;;;;5036805;28;20765;-59
2023/10/08 14:09:47;;;;;;;10.77;1.00;;;;;;;;;;5033866;28;20076;-58
2023/10/08 14:12:13;;;;;;;11.88;1.02;;;;;;;;;;5010701;28;20077;-58
2023/10/08 14:14:48;;;;;;;7.15;1.17;;;;;;;;;;5037548;28;20049;-58
2023/10/08 14:17:39;;;;;;;3.28;0.57;;;;;;;;;;5038118;28;20080;-58
2023/10/08 14:20:12;;;;;;;10.15;0.70;;;;;;;;;;5030460;28;20132;-58
2023/10/08 14:22:40;;;;;;;3.42;0.60;;;;;;;;;;5042741;28;20307;-58
2023/10/08 14:25:11;;;;;;;6.90;0.80;;;;;;;;;;5034404;28;20510;-58
2023/10/08 14:27:39;;;;;;;10.25;0.80;;;;;;;;;;5027337;28;20057;-58
2023/10/08 14:30:11;;;;;;;4.35;0.65;;;;;;;;;;5029679;28;20056;-58
2023/10/08 14:32:37;;;;;;;5.60;0.68;;;;;;;;;;5025253;28;20491;-58
2023/10/08 14:43:22;;;;;;;4.20;0.80;;;;;;;;;;5036698;28;20045;-59
2023/10/08 14:45:48;;;;;;;5.65;0.82;;;;;;;;;;5027185;28;20122;-59
2023/10/08 14:48:14;;;;;;;3.50;0.70;;;;;;;;;;5025065;28;20057;-58
2023/10/08 14:50:41;;;;;;;5.65;1.00;;;;;;;;;;5041400;28;20055;-59
2023/10/08 14:53:08;;;;;;;5.90;0.75;;;;;;;;;;5042414;28;20075;-60
2023/10/08 14:55:35;;;;;;;5.68;0.77;;;;;;;;;;5040288;28;20040;-60
2023/10/08 14:58:08;;;;;;;5.43;0.85;;;;;;;;;;5050155;28;20490;-61
2023/10/08 15:00:35;;;;;;;6.72;0.77;;;;;;;;;;5042972;28;20071;-60
2023/10/08 15:03:05;;;;;;;8.55;1.20;;;;;;;;;;5036947;28;20060;-61
2023/10/08 15:05:31;;;;;;;8.07;0.80;;;;;;;;;;5039220;28;20045;-60
2023/10/08 15:07:57;;;;;;;8.10;0.93;;;;;;;;;;5025093;28;20055;-61
2023/10/08 15:10:25;;;;;;;6.28;0.70;;;;;;;;;;5025031;28;20060;-61
2023/10/08 15:12:52;;;;;;;3.30;0.57;;;;;;;;;;5026860;28;20050;-61
2023/10/08 15:15:18;;;;;;;8.68;0.70;;;;;;;;;;5024064;28;20057;-61
2023/10/08 15:17:46;;;;;;;5.63;0.70;;;;;;;;;;5039846;28;20119;-61
2023/10/08 15:20:16;;;;;;;6.82;0.80;;;;;;;;;;5032480;28;20489;-61
2023/10/08 15:22:42;;;;;;;8.00;0.70;;;;;;;;;;5026993;28;20061;-61
2023/10/08 15:25:10;;;;;;;6.85;1.02;;;;;;;;;;5034293;28;20033;-61
2023/10/08 15:27:39;;;;;;;4.15;1.00;;;;;;;;;;5035856;28;20107;-61
2023/10/08 15:30:07;;;;;;;5.80;0.70;;;;;;;;;;5031922;28;20726;-61
2023/10/08 15:32:33;;;;;;;4.13;0.65;;;;;;;;;;5024775;28;20061;-61
2023/10/08 15:34:59;;;;;;;7.85;1.05;;;;;;;;;;5028490;28;20080;-61
2023/10/08 15:37:25;;;;;;;6.93;0.75;;;;;;;;;;5041772;28;20136;-60
2023/10/08 15:39:51;;;;;;;3.53;0.80;;;;;;;;;;5041756;28;20048;-61
2023/10/08 15:42:18;;;;;;;5.15;1.00;;;;;;;;;;5031975;28;20037;-60
2023/10/08 15:44:44;;;;;;;7.15;0.70;;;;;;;;;;5024115;28;20061;-60
2023/10/08 15:47:10;;;;;;;5.30;1.10;;;;;;;;;;5024070;28;20064;-61
2023/10/08 15:49:36;;;;;;;8.40;1.00;;;;;;;;;;5028226;28;20068;-61
2023/10/08 15:52:02;;;;;;;7.07;0.70;;;;;;;;;;5035272;28;20914;-61
2023/10/08 15:54:28;;;;;;;3.92;0.73;;;;;;;;;;5019146;28;20056;-62
2023/10/08 15:56:54;;;;;;;6.63;0.70;;;;;;;;;;5037968;28;20110;-62
2023/10/08 15:59:20;;;;;;;12.02;0.95;;;;;;;;;;5041376;28;20045;-62
2023/10/08 16:01:49;;;;;;;6.22;0.82;;;;;;;;;;5029382;28;20095;-62
2023/10/08 16:04:15;;;;;;;;;;;;;;;;;;5030261;28;20048;-62